Time;durP1;ratioP1;P1;durP2;ratioP2;P2;SDS_P1;SDS_P2;PMS_P1;PMS_P2;Temp;Humidity;BMP_temperature;BMP_pressure;BME280_temperature;BME280_humidity;BME280_pressure;Samples;Min_cycle;Max_cycle;Signal;HPM_P1;HPM_P2
2022/02/28 00:01:48;;;;;;;16.10;11.95;;;3.70;99.90;;;;;;5022914;28;20620;-69
2022/02/28 00:04:18;;;;;;;16.38;12.27;;;3.70;99.90;;;;;;5020445;28;20222;-69
2022/02/28 00:06:45;;;;;;;15.65;10.85;;;3.70;99.90;;;;;;5025983;28;20211;-67
2022/02/28 00:09:12;;;;;;;20.48;11.38;;;3.70;99.90;;;;;;5018663;28;20203;-68
2022/02/28 00:11:39;;;;;;;16.08;9.50;;;3.70;99.90;;;;;;5027544;28;20569;-68
2022/02/28 00:14:06;;;;;;;21.20;12.55;;;3.60;99.90;;;;;;5022420;28;20244;-69
2022/02/28 00:16:33;;;;;;;12.80;11.00;;;3.70;99.90;;;;;;5032618;28;20650;-70
2022/02/28 00:19:00;;;;;;;15.13;10.82;;;3.70;99.90;;;;;;5024802;28;20235;-68
2022/02/28 00:21:30;;;;;;;16.95;11.75;;;3.60;99.90;;;;;;5024756;28;20708;-68
2022/02/28 00:23:57;;;;;;;17.25;10.55;;;3.60;99.90;;;;;;5019609;28;20244;-69
2022/02/28 00:26:24;;;;;;;19.48;11.88;;;3.50;99.90;;;;;;5032144;28;20216;-68
2022/02/28 00:28:51;;;;;;;15.90;11.00;;;3.40;99.90;;;;;;5022841;28;20682;-69
2022/02/28 00:31:19;;;;;;;19.85;12.55;;;3.40;99.90;;;;;;5023288;28;20512;-69
2022/02/28 00:33:46;;;;;;;17.15;11.20;;;3.40;99.90;;;;;;5018346;28;20275;-68
2022/02/28 00:36:14;;;;;;;16.02;11.13;;;3.40;99.90;;;;;;5012031;28;20258;-68
2022/02/28 00:38:43;;;;;;;16.88;11.60;;;3.40;99.90;;;;;;5025714;28;20211;-69
2022/02/28 00:41:09;;;;;;;20.25;11.45;;;3.40;99.90;;;;;;5032027;28;20204;-69
2022/02/28 00:43:36;;;;;;;17.30;13.00;;;3.40;99.90;;;;;;5019136;28;20773;-68
2022/02/28 00:46:04;;;;;;;16.90;12.05;;;3.40;99.90;;;;;;5023654;28;20266;-68
2022/02/28 00:48:31;;;;;;;15.60;12.38;;;3.40;99.90;;;;;;5024584;28;20208;-69
2022/02/28 00:50:58;;;;;;;20.73;11.52;;;3.30;99.90;;;;;;5019235;28;20867;-69
2022/02/28 00:53:25;;;;;;;18.40;12.75;;;3.30;99.90;;;;;;5025431;28;20641;-69
2022/02/28 00:55:53;;;;;;;21.88;12.57;;;3.30;99.90;;;;;;5019508;28;20205;-69
2022/02/28 00:58:21;;;;;;;20.25;12.75;;;3.30;99.90;;;;;;5026271;28;20236;-69
2022/02/28 01:00:48;;;;;;;19.60;10.63;;;3.30;99.90;;;;;;5023851;28;20208;-68
2022/02/28 01:03:15;;;;;;;19.38;13.30;;;3.30;99.90;;;;;;5027497;28;20311;-69
2022/02/28 01:05:48;;;;;;;17.83;11.23;;;3.30;99.90;;;;;;5020176;28;20624;-69
2022/02/28 01:08:15;;;;;;;23.63;14.70;;;3.30;99.90;;;;;;5026936;28;20663;-69
2022/02/28 01:10:42;;;;;;;15.43;10.30;;;3.20;99.90;;;;;;5025230;28;20283;-69
2022/02/28 01:13:10;;;;;;;16.60;11.43;;;3.20;99.90;;;;;;5025917;28;20220;-69
2022/02/28 01:15:38;;;;;;;16.50;11.50;;;3.30;99.90;;;;;;5026336;28;20215;-68
2022/02/28 01:18:05;;;;;;;16.85;11.40;;;3.30;99.90;;;;;;5005639;28;20623;-69
2022/02/28 01:20:33;;;;;;;16.30;11.45;;;3.30;99.90;;;;;;5014809;28;20256;-69
2022/02/28 01:22:59;;;;;;;22.80;12.40;;;3.30;99.90;;;;;;5030655;28;20232;-69
2022/02/28 01:25:26;;;;;;;19.85;11.30;;;3.20;99.90;;;;;;5021542;28;20227;-68
2022/02/28 01:27:54;;;;;;;18.92;11.82;;;3.20;99.90;;;;;;5028147;28;20204;-68
2022/02/28 01:30:23;;;;;;;19.63;12.02;;;3.20;99.90;;;;;;5023271;28;20212;-68
2022/02/28 01:32:51;;;;;;;16.40;11.95;;;3.10;99.90;;;;;;5022522;28;20706;-69
2022/02/28 01:35:18;;;;;;;18.25;12.00;;;3.10;99.90;;;;;;5013138;28;20201;-69
2022/02/28 01:37:45;;;;;;;19.27;12.63;;;3.10;99.90;;;;;;5028740;28;20307;-68
2022/02/28 01:40:14;;;;;;;18.17;13.13;;;3.10;99.90;;;;;;5018682;28;20228;-68
2022/02/28 01:42:42;;;;;;;17.40;11.80;;;3.10;99.90;;;;;;5026423;28;20220;-68
2022/02/28 01:45:11;;;;;;;19.38;11.98;;;3.10;99.90;;;;;;5025468;28;20362;-68
2022/02/28 01:47:40;;;;;;;22.95;12.10;;;3.10;99.90;;;;;;5030689;28;20244;-69
2022/02/28 01:50:09;;;;;;;26.13;14.55;;;3.00;99.90;;;;;;5013871;28;20290;-69
2022/02/28 01:52:36;;;;;;;17.98;11.80;;;2.90;99.90;;;;;;5018348;28;20303;-68
2022/02/28 01:55:04;;;;;;;20.88;14.50;;;2.90;99.90;;;;;;5016870;28;20632;-68
2022/02/28 01:57:31;;;;;;;21.02;12.20;;;2.80;99.90;;;;;;5014395;28;20208;-69
2022/02/28 01:59:58;;;;;;;19.83;13.05;;;2.80;99.90;;;;;;5027202;28;20690;-68
2022/02/28 02:02:25;;;;;;;19.25;12.60;;;2.80;99.90;;;;;;5029380;28;20706;-69
2022/02/28 02:04:54;;;;;;;20.63;13.65;;;2.70;99.90;;;;;;5025228;28;20244;-68
2022/02/28 02:07:22;;;;;;;20.50;12.70;;;2.70;99.90;;;;;;5028192;28;20236;-67
2022/02/28 02:09:49;;;;;;;22.13;13.75;;;2.70;99.90;;;;;;5018832;28;20601;-68
2022/02/28 02:12:16;;;;;;;18.85;12.63;;;2.70;99.90;;;;;;5020768;28;20256;-68
2022/02/28 02:14:44;;;;;;;22.42;14.55;;;2.70;99.90;;;;;;5028538;28;20284;-68
2022/02/28 02:17:10;;;;;;;20.80;14.15;;;2.70;99.90;;;;;;5023591;28;20692;-68
2022/02/28 02:19:38;;;;;;;17.42;12.13;;;2.70;99.90;;;;;;5005084;28;20292;-69
2022/02/28 02:22:08;;;;;;;26.92;13.70;;;2.60;99.90;;;;;;5017970;28;20252;-68
2022/02/28 02:24:35;;;;;;;23.90;13.48;;;2.60;99.90;;;;;;5028654;28;20208;-68
2022/02/28 02:27:02;;;;;;;21.90;12.13;;;2.60;99.90;;;;;;5020248;28;20242;-68
2022/02/28 02:29:29;;;;;;;23.73;13.45;;;2.60;99.90;;;;;;5037183;28;20212;-68
2022/02/28 02:31:57;;;;;;;21.75;13.38;;;2.60;99.90;;;;;;5037015;28;20300;-67
2022/02/28 02:34:24;;;;;;;20.98;12.43;;;2.60;99.90;;;;;;5037717;28;20235;-69
2022/02/28 02:36:51;;;;;;;20.98;13.02;;;2.60;99.90;;;;;;5011603;28;20295;-68
2022/02/28 02:39:19;;;;;;;22.23;13.70;;;2.50;99.90;;;;;;5031354;28;20257;-68
2022/02/28 02:41:46;;;;;;;19.48;12.95;;;2.50;99.90;;;;;;5025030;28;20276;-68
2022/02/28 02:44:13;;;;;;;21.17;14.00;;;2.50;99.90;;;;;;5027895;28;20619;-68
2022/02/28 02:46:46;;;;;;;24.90;15.13;;;2.50;99.90;;;;;;5031384;28;20350;-68
2022/02/28 02:49:14;;;;;;;23.20;13.75;;;2.40;99.90;;;;;;5026709;28;20663;-69
2022/02/28 02:51:42;;;;;;;20.98;14.50;;;2.40;99.90;;;;;;5020678;28;20556;-69
2022/02/28 02:54:10;;;;;;;24.55;13.40;;;2.40;99.90;;;;;;5024073;28;20220;-68
2022/02/28 02:56:38;;;;;;;20.60;14.18;;;2.40;99.90;;;;;;5024614;28;20722;-68
2022/02/28 02:59:06;;;;;;;25.15;15.02;;;2.40;99.90;;;;;;5023437;28;20279;-69
2022/02/28 03:01:33;;;;;;;22.85;14.50;;;2.40;99.90;;;;;;5028754;28;20629;-69
2022/02/28 03:04:01;;;;;;;19.25;14.20;;;2.40;99.90;;;;;;5029889;28;20224;-68
2022/02/28 03:06:37;;;;;;;30.95;15.50;;;2.40;99.90;;;;;;5055072;23;20251;-85
2022/02/28 03:09:51;;;;;;;21.23;14.77;;;2.40;99.90;;;;;;5076532;28;20209;-84
2022/02/28 03:19:48;;;;;;;19.65;13.85;;;2.40;99.90;;;;;;5054160;28;20206;-83
2022/02/28 03:35:54;;;;;;;20.92;13.23;;;2.30;99.90;;;;;;4912555;29;20205;-84
2022/02/28 03:38:24;;;;;;;21.95;15.25;;;2.10;99.90;;;;;;4930945;28;20201;-85
2022/02/28 03:40:54;;;;;;;22.42;14.15;;;2.20;99.90;;;;;;5057904;28;20201;-85
2022/02/28 03:43:21;;;;;;;24.48;16.80;;;2.10;99.90;;;;;;5045103;28;20205;-84
2022/02/28 03:45:49;;;;;;;25.27;13.90;;;2.20;99.90;;;;;;5055210;28;20228;-84
2022/02/28 03:48:17;;;;;;;21.52;14.95;;;2.20;99.90;;;;;;5060486;28;20218;-85
2022/02/28 03:50:50;;;;;;;21.15;13.32;;;2.30;99.90;;;;;;5047805;28;20215;-85
2022/02/28 03:53:19;;;;;;;23.13;15.65;;;2.20;99.90;;;;;;5040198;28;20231;-85
2022/02/28 03:55:48;;;;;;;19.90;14.15;;;2.30;99.90;;;;;;5044723;28;20202;-85
2022/02/28 03:58:17;;;;;;;20.80;14.07;;;2.20;99.90;;;;;;5060881;28;20230;-85
2022/02/28 04:00:45;;;;;;;24.65;16.27;;;2.20;99.90;;;;;;5043603;28;20208;-85
2022/02/28 04:03:12;;;;;;;20.70;14.10;;;2.10;99.90;;;;;;5051376;28;20283;-85
2022/02/28 04:05:39;;;;;;;22.52;14.60;;;2.10;99.90;;;;;;5051903;28;20641;-85
2022/02/28 04:08:08;;;;;;;18.17;14.55;;;2.10;99.90;;;;;;5044233;28;20231;-85
2022/02/28 04:10:38;;;;;;;20.00;14.27;;;2.10;99.90;;;;;;5059959;28;20227;-84
2022/02/28 04:13:07;;;;;;;19.30;14.30;;;1.90;99.90;;;;;;5048096;28;20194;-85
2022/02/28 04:15:34;;;;;;;21.90;14.95;;;2.20;99.90;;;;;;5070389;28;20199;-84
2022/02/28 04:18:01;;;;;;;21.60;14.77;;;2.10;99.90;;;;;;5060520;28;20227;-84
2022/02/28 04:20:28;;;;;;;22.83;15.57;;;2.20;99.90;;;;;;5054405;28;20235;-84
2022/02/28 04:22:55;;;;;;;23.30;16.02;;;2.00;99.90;;;;;;5059321;28;20211;-83
2022/02/28 04:25:25;;;;;;;24.33;15.45;;;2.20;99.90;;;;;;5060814;28;20188;-84
2022/02/28 04:27:53;;;;;;;31.85;17.77;;;2.10;99.90;;;;;;5069972;28;20219;-84
2022/02/28 04:30:21;;;;;;;19.23;14.70;;;2.10;99.90;;;;;;5055515;28;20203;-84
2022/02/28 04:32:48;;;;;;;22.30;13.82;;;2.20;99.90;;;;;;5054975;28;20235;-84
2022/02/28 04:35:15;;;;;;;19.08;12.98;;;2.10;99.90;;;;;;5052719;28;20264;-85
2022/02/28 04:37:43;;;;;;;26.83;15.48;;;2.10;99.90;;;;;;5055161;28;20220;-85
2022/02/28 04:40:11;;;;;;;24.77;15.77;;;2.10;99.90;;;;;;5054951;28;20204;-85
2022/02/28 04:42:38;;;;;;;22.05;14.75;;;2.10;99.90;;;;;;5050586;28;20210;-85
2022/02/28 04:45:06;;;;;;;20.02;12.77;;;2.00;99.90;;;;;;5051878;28;20208;-85
2022/02/28 04:47:35;;;;;;;24.60;15.57;;;2.00;99.90;;;;;;5046822;28;20295;-85
2022/02/28 04:50:02;;;;;;;29.67;17.35;;;2.00;99.90;;;;;;5048378;28;20204;-85
2022/02/28 04:52:29;;;;;;;24.67;17.77;;;2.00;99.90;;;;;;5049842;28;20208;-85
2022/02/28 04:54:56;;;;;;;27.13;15.77;;;2.00;99.90;;;;;;5051657;28;20192;-85
2022/02/28 04:57:23;;;;;;;29.38;16.23;;;2.10;99.90;;;;;;5053448;28;20270;-84
2022/02/28 04:59:50;;;;;;;23.27;15.60;;;2.20;99.90;;;;;;5070497;28;20196;-85
2022/02/28 05:02:17;;;;;;;23.23;15.90;;;2.00;99.90;;;;;;5070514;28;20275;-85
2022/02/28 05:04:45;;;;;;;22.70;15.73;;;2.00;99.90;;;;;;5069454;28;20207;-84
2022/02/28 05:07:13;;;;;;;24.02;15.95;;;1.90;99.90;;;;;;5066629;28;20262;-84
2022/02/28 05:09:45;;;;;;;25.23;14.98;;;1.90;99.90;;;;;;5072639;28;20207;-83
2022/02/28 05:12:12;;;;;;;25.20;15.82;;;2.00;99.90;;;;;;5070220;28;20195;-84
2022/02/28 05:14:41;;;;;;;22.60;16.52;;;1.90;99.90;;;;;;5077027;28;20184;-82
2022/02/28 05:17:12;;;;;;;24.38;16.83;;;2.00;99.90;;;;;;5071195;28;20207;-82
2022/02/28 05:19:45;;;;;;;21.23;14.70;;;1.90;99.90;;;;;;5063766;28;20219;-83
2022/02/28 05:22:13;;;;;;;30.02;15.80;;;2.00;99.90;;;;;;5049538;28;20208;-84
2022/02/28 05:24:40;;;;;;;20.00;14.63;;;2.00;99.90;;;;;;5045742;28;20208;-84
2022/02/28 05:27:09;;;;;;;21.85;15.23;;;1.90;99.90;;;;;;5061566;28;20207;-84
2022/02/28 05:29:37;;;;;;;25.73;15.82;;;1.90;99.90;;;;;;5064746;28;20218;-84
2022/02/28 05:32:04;;;;;;;25.05;14.25;;;2.00;99.90;;;;;;5054556;28;20664;-85
2022/02/28 05:34:31;;;;;;;24.38;15.40;;;2.00;99.90;;;;;;5054767;28;20584;-85
2022/02/28 05:37:01;;;;;;;24.92;16.02;;;1.90;99.90;;;;;;5043994;28;20274;-84
2022/02/28 05:39:29;;;;;;;24.02;17.60;;;1.90;99.90;;;;;;5045441;28;20250;-84
2022/02/28 05:41:56;;;;;;;28.40;15.52;;;1.90;99.90;;;;;;5051950;28;20216;-84
2022/02/28 05:44:24;;;;;;;27.38;16.75;;;1.80;99.90;;;;;;5044329;28;20212;-83
2022/02/28 05:46:53;;;;;;;21.70;15.73;;;1.90;99.90;;;;;;5057686;28;20251;-84
2022/02/28 05:49:20;;;;;;;24.00;16.10;;;1.90;99.90;;;;;;5043743;28;20230;-84
2022/02/28 05:51:48;;;;;;;26.55;18.05;;;1.80;99.90;;;;;;5053464;28;20202;-84
2022/02/28 05:54:15;;;;;;;23.10;15.95;;;1.60;99.90;;;;;;5050518;28;20205;-84
2022/02/28 05:56:43;;;;;;;25.77;15.52;;;1.70;99.90;;;;;;5049500;28;20230;-84
2022/02/28 05:59:10;;;;;;;27.08;15.55;;;1.80;99.90;;;;;;5027177;28;20196;-84
2022/02/28 06:01:38;;;;;;;24.30;16.00;;;1.90;99.90;;;;;;5044811;28;20228;-84
2022/02/28 06:04:05;;;;;;;32.85;17.90;;;1.70;99.90;;;;;;5031993;28;20724;-84
2022/02/28 06:06:32;;;;;;;22.85;17.50;;;1.80;99.90;;;;;;5032988;28;20233;-84
2022/02/28 06:09:01;;;;;;;23.95;15.43;;;1.80;99.90;;;;;;5038903;28;20239;-83
2022/02/28 06:11:34;;;;;;;24.23;16.58;;;1.70;99.90;;;;;;5041428;28;20218;-82
2022/02/28 06:14:50;;;;;;;23.30;16.77;;;1.70;99.90;;;;;;5050769;28;20269;-85
2022/02/28 06:17:19;;;;;;;29.50;16.67;;;1.70;99.90;;;;;;5045706;28;20204;-83
2022/02/28 06:19:46;;;;;;;24.23;15.57;;;1.60;99.90;;;;;;5055763;28;20294;-84
2022/02/28 06:22:14;;;;;;;29.58;17.30;;;1.80;99.90;;;;;;5046730;28;20265;-84
2022/02/28 06:24:41;;;;;;;28.63;18.40;;;1.60;99.90;;;;;;5045000;28;20424;-83
2022/02/28 06:27:08;;;;;;;27.70;16.70;;;1.60;99.90;;;;;;5054671;28;20209;-83
2022/02/28 06:29:35;;;;;;;35.50;18.58;;;1.60;99.90;;;;;;5049330;28;20209;-83
2022/02/28 06:32:12;;;;;;;28.95;17.15;;;1.70;99.90;;;;;;5043877;28;20206;-83
2022/02/28 06:34:41;;;;;;;24.75;16.35;;;1.70;99.90;;;;;;5044082;28;20290;-85
2022/02/28 06:37:08;;;;;;;22.90;15.93;;;1.70;99.90;;;;;;5068578;28;20235;-84
2022/02/28 06:39:34;;;;;;;27.65;16.02;;;1.70;99.90;;;;;;5056581;28;20212;-85
2022/02/28 06:42:01;;;;;;;32.58;18.40;;;1.80;99.90;;;;;;5047066;28;20215;-83
2022/02/28 06:44:28;;;;;;;29.48;18.77;;;1.80;99.90;;;;;;5067524;28;20203;-83
2022/02/28 06:46:55;;;;;;;23.48;15.10;;;1.80;99.90;;;;;;5059778;28;20678;-82
2022/02/28 06:49:22;;;;;;;24.58;16.60;;;1.80;99.90;;;;;;5052256;28;20231;-84
2022/02/28 06:51:51;;;;;;;23.90;17.00;;;1.80;99.90;;;;;;5067960;28;20199;-84
2022/02/28 06:54:17;;;;;;;23.42;16.20;;;1.80;99.90;;;;;;5061636;28;20264;-83
2022/02/28 06:56:44;;;;;;;23.83;17.02;;;1.80;99.90;;;;;;5043947;28;20276;-82
2022/02/28 06:59:11;;;;;;;25.40;17.65;;;1.90;99.90;;;;;;5050219;28;20265;-82
2022/02/28 07:01:39;;;;;;;25.65;15.45;;;1.90;99.90;;;;;;5046133;28;20612;-82
2022/02/28 07:04:07;;;;;;;31.20;18.15;;;2.00;99.90;;;;;;5042485;28;20219;-81
2022/02/28 07:06:35;;;;;;;27.27;17.38;;;2.10;99.90;;;;;;5061214;28;20641;-82
2022/02/28 07:09:11;;;;;;;25.67;16.73;;;2.20;99.90;;;;;;5048408;28;20195;-82
2022/02/28 07:11:48;;;;;;;27.20;17.65;;;2.30;99.90;;;;;;5061301;28;20263;-85
2022/02/28 07:22:15;;;;;;;21.33;14.18;;;4.20;99.90;;;;;;5018545;28;20219;-85
2022/02/28 07:38:15;;;;;;;16.75;12.98;;;9.90;95.90;;;;;;4947658;29;20221;-84
2022/02/28 07:40:42;;;;;;;16.25;12.85;;;10.70;93.80;;;;;;5018644;28;20250;-85
2022/02/28 07:43:09;;;;;;;15.40;11.95;;;11.30;92.20;;;;;;5038399;28;20302;-87
2022/02/28 07:45:36;;;;;;;18.85;12.90;;;11.60;90.60;;;;;;5038352;28;20231;-86
2022/02/28 07:48:04;;;;;;;19.38;13.13;;;12.00;89.50;;;;;;5031524;28;20247;-87
2022/02/28 07:50:31;;;;;;;19.08;13.45;;;12.40;87.90;;;;;;5036790;28;20201;-87
2022/02/28 07:52:58;;;;;;;16.83;13.20;;;12.70;86.10;;;;;;5041128;28;20204;-85
2022/02/28 07:55:27;;;;;;;19.83;14.23;;;12.90;84.60;;;;;;5050358;28;20222;-84
2022/02/28 07:57:55;;;;;;;18.55;13.50;;;12.70;84.00;;;;;;5058840;28;20337;-89
2022/02/28 08:00:22;;;;;;;16.98;13.30;;;13.20;83.70;;;;;;5050209;28;20204;-84
2022/02/28 08:02:49;;;;;;;20.30;13.57;;;14.00;81.60;;;;;;5046611;28;20205;-83
2022/02/28 08:05:16;;;;;;;18.70;14.00;;;14.10;78.20;;;;;;5037072;28;20511;-84
2022/02/28 08:07:43;;;;;;;18.02;16.02;;;13.90;77.80;;;;;;5034966;28;20472;-83
2022/02/28 08:10:10;;;;;;;18.25;14.45;;;13.40;77.90;;;;;;5053727;28;20202;-83
2022/02/28 08:12:41;;;;;;;18.52;13.60;;;13.60;79.10;;;;;;5055890;28;20240;-83
2022/02/28 08:15:09;;;;;;;20.75;13.38;;;13.50;78.70;;;;;;5031647;28;20201;-83
2022/02/28 08:17:36;;;;;;;20.60;14.98;;;13.50;78.60;;;;;;5034884;28;20213;-84
2022/02/28 08:20:03;;;;;;;19.17;15.27;;;13.50;78.40;;;;;;5036425;28;20235;-84
2022/02/28 08:22:30;;;;;;;19.70;13.43;;;13.50;78.30;;;;;;5040938;28;20294;-84
2022/02/28 08:25:00;;;;;;;18.38;14.32;;;14.10;78.00;;;;;;5054002;28;20499;-85
2022/02/28 08:27:27;;;;;;;20.40;15.35;;;13.90;77.40;;;;;;5050580;28;20260;-86
2022/02/28 08:29:56;;;;;;;19.17;14.57;;;14.00;77.60;;;;;;5042252;28;20211;-86
2022/02/28 08:32:23;;;;;;;16.13;12.97;;;14.50;76.50;;;;;;5042952;28;20445;-85
2022/02/28 08:34:50;;;;;;;18.50;15.88;;;14.60;75.60;;;;;;5051442;28;20957;-84
2022/02/28 08:37:16;;;;;;;21.23;14.47;;;14.60;75.50;;;;;;5031558;28;20258;-84
2022/02/28 08:39:44;;;;;;;18.30;14.07;;;14.40;74.80;;;;;;5051609;28;20533;-84
2022/02/28 08:42:11;;;;;;;18.67;13.80;;;14.80;75.30;;;;;;5045243;28;20479;-84
2022/02/28 08:44:38;;;;;;;17.67;14.70;;;14.80;75.10;;;;;;5065365;28;20483;-85
2022/02/28 08:47:07;;;;;;;17.10;13.97;;;14.60;74.80;;;;;;5046071;28;20855;-86
2022/02/28 08:49:35;;;;;;;17.80;14.30;;;15.10;74.50;;;;;;5058034;28;20517;-85
2022/02/28 08:52:02;;;;;;;16.77;12.97;;;15.40;73.30;;;;;;5044470;28;20942;-85
2022/02/28 08:54:29;;;;;;;18.63;15.03;;;15.60;72.20;;;;;;5061437;28;20572;-86
2022/02/28 08:56:55;;;;;;;18.67;13.67;;;15.50;72.10;;;;;;5053773;28;20516;-85
2022/02/28 08:59:22;;;;;;;17.50;14.93;;;15.60;71.80;;;;;;5056896;28;20475;-84
2022/02/28 09:01:49;;;;;;;18.70;14.63;;;15.30;71.20;;;;;;5056293;28;20446;-84
2022/02/28 09:04:17;;;;;;;18.67;14.83;;;15.30;72.10;;;;;;5048215;28;20525;-82
2022/02/28 09:06:44;;;;;;;16.40;13.93;;;15.50;72.60;;;;;;5067738;22;20475;-80
2022/02/28 09:09:11;;;;;;;17.60;14.53;;;15.60;71.80;;;;;;5050339;28;20473;-81
2022/02/28 09:11:38;;;;;;;16.43;12.90;;;15.70;71.20;;;;;;5056661;28;20442;-80
2022/02/28 09:14:05;;;;;;;21.10;15.57;;;16.20;70.30;;;;;;5049127;28;20980;-81
2022/02/28 09:16:32;;;;;;;21.60;13.70;;;16.00;69.50;;;;;;5045179;28;20539;-80
2022/02/28 09:19:00;;;;;;;18.43;15.63;;;15.90;70.70;;;;;;5045160;28;20491;-82
2022/02/28 09:21:28;;;;;;;17.43;14.03;;;15.90;70.20;;;;;;5050950;28;20454;-81
2022/02/28 09:23:55;;;;;;;16.60;14.43;;;16.00;69.70;;;;;;5061097;28;20458;-83
2022/02/28 09:26:22;;;;;;;16.37;14.67;;;15.70;69.90;;;;;;5044333;28;20455;-80
2022/02/28 09:28:49;;;;;;;17.53;15.63;;;15.40;70.20;;;;;;5047119;28;20467;-83
2022/02/28 09:31:16;;;;;;;14.87;13.30;;;15.20;70.70;;;;;;5057198;28;20441;-84
2022/02/28 09:33:44;;;;;;;21.90;15.67;;;14.60;71.70;;;;;;5040111;28;20489;-83
2022/02/28 09:36:11;;;;;;;17.50;14.80;;;14.70;73.20;;;;;;5049782;28;20448;-83
2022/02/28 09:38:39;;;;;;;18.17;15.20;;;14.40;75.40;;;;;;5046331;28;20509;-85
2022/02/28 09:41:06;;;;;;;18.10;13.80;;;15.40;72.80;;;;;;5056785;28;20506;-85
2022/02/28 09:43:34;;;;;;;18.37;14.90;;;15.90;70.50;;;;;;5045576;28;20450;-83
2022/02/28 09:46:03;;;;;;;20.30;15.10;;;15.60;70.30;;;;;;5046758;28;20465;-83
2022/02/28 09:48:32;;;;;;;18.77;15.10;;;15.60;70.40;;;;;;5047462;28;20470;-83
2022/02/28 09:50:59;;;;;;;22.63;14.97;;;15.70;70.30;;;;;;5046764;28;20470;-83
2022/02/28 09:53:27;;;;;;;18.00;14.57;;;15.60;70.40;;;;;;5041127;28;20506;-82
2022/02/28 09:55:55;;;;;;;18.33;14.60;;;15.40;70.40;;;;;;5038437;28;20458;-81
2022/02/28 09:58:28;;;;;;;18.00;14.83;;;15.50;71.10;;;;;;5057807;28;20484;-82
2022/02/28 10:00:56;;;;;;;18.50;14.60;;;15.40;70.90;;;;;;5049337;28;20440;-82
2022/02/28 10:03:24;;;;;;;20.13;14.60;;;15.60;72.10;;;;;;5046665;28;20474;-82
2022/02/28 10:05:51;;;;;;;17.33;15.17;;;16.00;71.80;;;;;;5047320;28;20511;-82
2022/02/28 10:08:19;;;;;;;20.23;15.20;;;15.90;71.00;;;;;;5048571;28;20468;-81
2022/02/28 10:10:47;;;;;;;17.57;14.07;;;15.30;71.00;;;;;;5044143;28;20446;-82
2022/02/28 10:13:25;;;;;;;16.50;13.87;;;15.70;71.50;;;;;;5057383;28;20441;-83
2022/02/28 10:15:52;;;;;;;18.48;14.30;;;15.60;71.10;;;;;;5059788;28;20515;-82
2022/02/28 10:18:19;;;;;;;17.35;14.65;;;14.70;71.90;;;;;;5052503;28;20587;-83
2022/02/28 10:20:47;;;;;;;19.08;14.57;;;14.70;73.10;;;;;;5070896;28;20224;-82
2022/02/28 10:23:16;;;;;;;17.23;14.75;;;14.20;73.60;;;;;;5049298;28;20201;-82
2022/02/28 10:25:46;;;;;;;18.70;15.52;;;13.90;74.90;;;;;;5064619;28;20230;-82
2022/02/28 10:28:19;;;;;;;18.42;14.73;;;13.40;76.30;;;;;;5051996;28;20219;-81
2022/02/28 10:31:00;;;;;;;20.85;14.25;;;13.20;77.70;;;;;;5065048;28;20208;-82
2022/02/28 10:33:31;;;;;;;20.33;15.63;;;13.20;78.80;;;;;;5036393;28;20228;-82
2022/02/28 10:36:14;;;;;;;18.05;12.63;;;13.30;78.60;;;;;;5059510;28;20227;-82
2022/02/28 10:38:47;;;;;;;20.65;14.05;;;12.90;77.70;;;;;;5051752;28;20210;-82
2022/02/28 10:41:20;;;;;;;23.98;14.57;;;13.00;79.70;;;;;;5055208;28;20243;-82
2022/02/28 10:43:51;;;;;;;20.92;14.40;;;12.40;79.20;;;;;;5062346;28;20226;-84
2022/02/28 10:46:21;;;;;;;14.82;13.23;;;12.00;80.40;;;;;;5052763;28;20213;-83
2022/02/28 10:49:02;;;;;;;16.77;13.35;;;12.10;80.40;;;;;;5058945;28;20203;-81
2022/02/28 10:51:30;;;;;;;20.15;13.30;;;12.00;81.00;;;;;;5051618;28;20222;-81
2022/02/28 10:54:13;;;;;;;16.77;13.93;;;12.20;82.20;;;;;;5045071;28;20208;-81
2022/02/28 10:57:00;;;;;;;21.80;15.52;;;12.10;81.90;;;;;;5054967;28;20238;-82
2022/02/28 10:59:31;;;;;;;19.05;15.05;;;12.30;81.80;;;;;;5061537;28;20247;-82
2022/02/28 11:01:58;;;;;;;16.60;13.23;;;11.80;84.30;;;;;;5041683;28;20249;-82
2022/02/28 11:04:34;;;;;;;20.17;14.55;;;11.90;82.90;;;;;;5044660;28;20215;-82
2022/02/28 11:07:01;;;;;;;22.95;13.48;;;11.70;83.70;;;;;;5060281;28;20285;-82
2022/02/28 11:09:34;;;;;;;16.55;12.93;;;11.60;83.40;;;;;;5064038;28;20206;-82
2022/02/28 11:12:29;;;;;;;22.88;15.15;;;11.50;84.40;;;;;;5058352;28;20288;-81
2022/02/28 11:15:00;;;;;;;26.75;14.88;;;11.40;85.00;;;;;;5044199;28;20207;-83
2022/02/28 11:17:29;;;;;;;17.55;12.98;;;11.30;85.50;;;;;;5045441;28;20250;-81
2022/02/28 11:19:59;;;;;;;16.40;12.50;;;11.30;86.20;;;;;;5040043;28;20216;-82
2022/02/28 11:22:27;;;;;;;18.10;14.10;;;11.20;84.70;;;;;;5057781;28;20215;-82
2022/02/28 11:24:54;;;;;;;19.70;13.60;;;11.20;85.50;;;;;;5047888;28;20211;-82
2022/02/28 11:27:22;;;;;;;14.90;13.02;;;11.20;85.80;;;;;;5045825;28;20715;-81
2022/02/28 11:29:52;;;;;;;17.52;13.30;;;11.20;84.60;;;;;;5050042;28;20291;-82
2022/02/28 11:32:23;;;;;;;15.88;13.43;;;11.00;84.60;;;;;;5054510;28;20651;-82
2022/02/28 11:34:51;;;;;;;19.15;14.15;;;10.90;86.00;;;;;;5039811;28;20301;-82
2022/02/28 11:37:22;;;;;;;20.23;13.05;;;10.70;85.40;;;;;;5036499;28;20226;-81
2022/02/28 11:39:49;;;;;;;16.33;13.07;;;10.70;85.90;;;;;;5053030;28;20255;-82
2022/02/28 11:42:16;;;;;;;17.35;13.50;;;10.80;87.00;;;;;;5052790;28;20232;-82
2022/02/28 11:44:55;;;;;;;21.55;14.30;;;10.80;86.90;;;;;;5051055;28;20204;-82
2022/02/28 11:47:26;;;;;;;14.00;12.23;;;10.70;87.10;;;;;;5053013;28;20325;-83
2022/02/28 11:49:53;;;;;;;20.42;14.07;;;10.70;86.40;;;;;;5050552;28;20220;-82
2022/02/28 11:52:31;;;;;;;15.18;12.93;;;10.70;87.00;;;;;;5065531;28;20658;-81
2022/02/28 11:55:02;;;;;;;15.75;12.75;;;10.60;87.10;;;;;;5050524;28;20876;-81
2022/02/28 11:57:51;;;;;;;19.48;12.90;;;10.50;87.60;;;;;;5058697;28;20228;-82
2022/02/28 12:00:40;;;;;;;16.45;13.10;;;10.20;88.30;;;;;;5042457;28;20236;-82
2022/02/28 12:03:29;;;;;;;15.07;12.60;;;10.20;88.80;;;;;;5040231;28;20205;-82
2022/02/28 12:05:56;;;;;;;15.43;13.10;;;10.20;89.50;;;;;;5049797;28;20236;-81
2022/02/28 12:08:36;;;;;;;20.73;14.45;;;10.10;90.00;;;;;;5050350;28;20302;-84
2022/02/28 12:11:17;;;;;;;17.85;13.65;;;10.00;90.20;;;;;;5046713;28;20286;-81
2022/02/28 12:13:44;;;;;;;21.80;14.23;;;10.10;90.30;;;;;;5071740;28;20217;-81
2022/02/28 12:17:30;;;;;;;23.05;14.50;;;10.10;90.20;;;;;;5067235;28;20189;-79
2022/02/28 12:19:28;;;;;;;18.10;13.05;;;10.20;90.30;;;;;;5072104;28;20210;-80
2022/02/28 12:21:59;;;;;;;17.70;13.20;;;10.20;89.10;;;;;;5061493;28;20203;-82
2022/02/28 12:25:04;;;;;;;17.27;12.52;;;10.10;89.80;;;;;;5072229;28;20353;-81
2022/02/28 12:27:31;;;;;;;24.23;12.70;;;10.10;89.60;;;;;;5055590;28;20221;-81
2022/02/28 12:29:59;;;;;;;17.23;13.55;;;10.20;89.60;;;;;;5068501;28;20215;-80
2022/02/28 12:32:50;;;;;;;19.25;13.90;;;10.20;90.00;;;;;;5045246;28;20209;-82
2022/02/28 12:35:21;;;;;;;14.68;11.57;;;10.20;90.20;;;;;;5057084;28;20600;-80
2022/02/28 12:37:48;;;;;;;19.73;11.45;;;10.20;88.80;;;;;;5046116;28;20248;-82
2022/02/28 12:40:15;;;;;;;15.48;13.40;;;10.10;89.30;;;;;;5057520;28;20260;-80
2022/02/28 12:42:42;;;;;;;17.52;13.00;;;10.20;89.50;;;;;;5057605;28;20188;-81
2022/02/28 12:45:09;;;;;;;16.98;13.75;;;10.20;89.90;;;;;;5061765;28;20183;-81
2022/02/28 12:47:36;;;;;;;15.40;12.35;;;10.30;88.80;;;;;;5064830;28;20205;-81
2022/02/28 12:50:08;;;;;;;17.27;11.75;;;10.20;87.60;;;;;;5056637;28;20224;-82
2022/02/28 12:52:36;;;;;;;17.42;11.70;;;10.20;88.00;;;;;;5054677;28;20221;-81
2022/02/28 12:55:05;;;;;;;15.70;11.10;;;10.20;87.40;;;;;;5053538;28;20208;-81
2022/02/28 12:57:36;;;;;;;14.40;10.82;;;10.10;87.50;;;;;;5051797;28;20241;-82
2022/02/28 13:00:04;;;;;;;18.65;15.07;;;10.10;86.70;;;;;;5047387;28;20222;-80
2022/02/28 13:02:33;;;;;;;15.25;11.77;;;10.10;86.30;;;;;;5057810;28;20287;-81
2022/02/28 13:05:00;;;;;;;13.73;11.85;;;10.10;87.10;;;;;;5054641;28;20260;-81
2022/02/28 13:07:28;;;;;;;17.50;12.75;;;10.00;87.50;;;;;;5035439;28;20257;-81
2022/02/28 13:09:56;;;;;;;19.73;13.93;;;10.00;88.30;;;;;;5056947;28;20197;-82
2022/02/28 13:12:27;;;;;;;19.30;14.20;;;10.00;89.70;;;;;;5066495;28;20254;-80
2022/02/28 13:14:56;;;;;;;19.27;14.55;;;10.00;90.50;;;;;;5048851;28;20212;-82
2022/02/28 13:17:25;;;;;;;21.90;12.88;;;10.00;91.10;;;;;;5064069;28;20230;-82
2022/02/28 13:19:54;;;;;;;18.60;15.05;;;10.00;90.50;;;;;;5046797;28;20219;-83
2022/02/28 13:22:23;;;;;;;18.60;13.90;;;9.90;91.80;;;;;;5039897;28;20201;-83
2022/02/28 13:24:50;;;;;;;20.80;14.25;;;10.00;91.60;;;;;;5053527;28;20296;-82
2022/02/28 13:27:19;;;;;;;19.55;15.25;;;10.00;91.40;;;;;;5050383;28;20356;-83